createdAt,value
2019-06-10T00:01:21.945Z,99102.63
2019-06-10T00:03:51.748Z,99094.19
2019-06-10T00:06:20.797Z,99090.70
2019-06-10T00:08:46.732Z,99090.95
2019-06-10T00:11:14.064Z,99094.64
2019-06-10T00:13:41.561Z,99089.88
2019-06-10T00:16:08.511Z,99090.76
2019-06-10T00:18:41.803Z,99088.08
2019-06-10T00:21:05.534Z,99083.86
2019-06-10T00:23:32.906Z,99089.83
2019-06-10T00:26:03.218Z,99096.97
2019-06-10T00:28:30.978Z,99078.80
2019-06-10T00:30:58.190Z,99081.73
2019-06-10T00:33:26.117Z,99072.75
2019-06-10T00:35:53.591Z,99073.52
2019-06-10T00:38:21.414Z,99067.25
2019-06-10T00:40:51.142Z,99070.70
2019-06-10T00:43:17.692Z,99076.44
2019-06-10T00:45:44.426Z,99070.06
2019-06-10T00:48:24.305Z,99073.52
2019-06-10T00:50:41.497Z,99070.94
2019-06-10T00:53:09.892Z,99071.81
2019-06-10T00:55:37.596Z,99082.31
2019-06-10T00:58:05.674Z,99081.00
2019-06-10T01:00:32.876Z,99081.78
2019-06-10T01:03:01.056Z,99084.59
2019-06-10T01:05:28.237Z,99063.70
2019-06-10T01:07:54.954Z,99063.81
2019-06-10T01:10:22.186Z,99061.66
2019-06-10T01:12:51.275Z,99063.70
2019-06-10T01:15:18.041Z,99057.65
2019-06-10T01:17:44.782Z,99048.70
2019-06-10T01:20:14.389Z,99042.53
2019-06-10T01:22:41.170Z,99046.32
2019-06-10T01:25:09.345Z,99044.38
2019-06-10T01:27:36.778Z,99046.56
2019-06-10T01:30:14.239Z,99047.33
2019-06-10T01:32:37.258Z,99042.67
2019-06-10T01:35:05.022Z,98767.43
2019-06-10T01:37:32.096Z,99029.46
2019-06-10T01:40:00.794Z,99030.88
2019-06-10T01:42:27.765Z,99051.89
2019-06-10T01:44:54.923Z,99009.41
2019-06-10T01:47:21.869Z,99006.59
2019-06-10T01:49:48.692Z,99005.18
2019-06-10T01:52:16.987Z,98998.14
2019-06-10T01:54:44.147Z,99000.86
2019-06-10T01:57:12.520Z,98992.94
2019-06-10T01:59:41.311Z,99003.67
2019-06-10T02:02:12.706Z,98998.67
2019-06-10T02:04:41.152Z,98995.63
2019-06-10T02:07:09.206Z,98991.83
2019-06-10T02:09:36.386Z,98989.95
2019-06-10T02:12:03.922Z,98974.00
2019-06-10T02:14:31.757Z,98973.25
2019-06-10T02:17:01.124Z,98978.75
2019-06-10T02:19:27.630Z,98982.77
2019-06-10T02:21:54.469Z,98988.27
2019-06-10T02:24:23.302Z,98990.45
2019-06-10T02:26:51.613Z,98973.32
2019-06-10T02:29:21.451Z,98965.75
2019-06-10T02:31:47.434Z,98962.06
2019-06-10T02:34:19.695Z,98974.39
2019-06-10T02:36:44.606Z,98955.86
2019-06-10T02:39:16.746Z,98926.59
2019-06-10T02:41:44.228Z,98925.85
2019-06-10T02:44:09.684Z,98929.31
2019-06-10T02:46:36.660Z,98757.41
2019-06-10T02:49:20.795Z,98938.39
2019-06-10T02:51:35.693Z,98942.61
2019-06-10T02:54:04.465Z,98936.98
2019-06-10T02:56:35.053Z,98948.24
2019-06-10T02:58:58.974Z,98955.17
2019-06-10T03:01:30.536Z,98956.98
2019-06-10T03:03:54.661Z,98950.72
2019-06-10T03:06:29.832Z,98947.37
2019-06-10T03:08:50.322Z,98955.28
2019-06-10T03:11:19.232Z,98956.82
2019-06-10T03:13:45.837Z,98944.79
2019-06-10T03:16:17.812Z,98952.70
2019-06-10T03:18:44.997Z,98223.69
2019-06-10T03:21:12.401Z,98739.55
2019-06-10T03:23:39.294Z,98953.64
2019-06-10T03:26:06.270Z,98954.84
2019-06-10T03:28:33.072Z,98960.34
2019-06-10T03:30:59.903Z,98946.16
2019-06-10T03:33:35.409Z,98945.92
2019-06-10T03:35:55.823Z,98953.20
2019-06-10T03:38:24.989Z,98937.71
2019-06-10T03:40:52.483Z,98954.70
2019-06-10T03:43:20.773Z,98953.94
2019-06-10T03:45:48.462Z,98953.20
2019-06-10T03:48:15.369Z,98954.60
2019-06-10T03:50:43.164Z,98951.89
2019-06-10T03:53:12.666Z,98955.77
2019-06-10T03:55:38.662Z,98970.25
2019-06-10T03:58:05.814Z,98961.23
2019-06-10T04:00:32.880Z,98806.77
2019-06-10T04:02:59.827Z,98948.89
2019-06-10T04:05:27.417Z,98948.75
2019-06-10T04:07:55.520Z,98952.10
2019-06-10T04:10:24.938Z,98946.81
2019-06-10T04:12:52.379Z,98952.05
2019-06-10T04:15:19.662Z,98952.38
2019-06-10T04:17:46.623Z,98941.23
2019-06-10T04:20:15.586Z,98103.58
2019-06-10T04:22:44.342Z,98939.08
2019-06-10T04:25:12.147Z,98936.67
2019-06-10T04:27:39.309Z,98940.55
2019-06-10T04:30:06.571Z,98938.56
2019-06-10T04:32:33.700Z,98943.95
2019-06-10T04:35:02.289Z,98944.09
2019-06-10T04:37:29.484Z,98939.97
2019-06-10T04:39:57.605Z,98947.98
2019-06-10T04:42:26.093Z,98950.94
2019-06-10T04:44:53.742Z,98961.12
2019-06-10T04:47:21.385Z,98953.02
2019-06-10T04:49:49.312Z,98937.01
2019-06-10T04:52:16.117Z,98953.02
2019-06-10T04:54:43.094Z,98932.11
2019-06-10T04:57:09.811Z,98924.73
2019-06-10T04:59:36.498Z,98930.36
2019-06-10T05:02:05.662Z,98932.00
2019-06-10T05:04:32.926Z,98925.07
2019-06-10T05:07:01.991Z,98928.13
2019-06-10T05:09:29.409Z,98936.56
2019-06-10T05:11:57.428Z,98943.59
2019-06-10T05:14:25.739Z,98948.06
2019-06-10T05:16:54.343Z,98938.31
2019-06-10T05:19:24.549Z,98930.10
2019-06-10T05:21:52.297Z,98912.68
2019-06-10T05:24:19.724Z,98927.16
2019-06-10T05:26:46.540Z,98922.36
2019-06-10T05:29:13.550Z,98950.70
2019-06-10T05:31:43.239Z,98936.39
2019-06-10T05:34:08.794Z,98944.20
2019-06-10T05:36:35.849Z,98953.61
2019-06-10T05:39:04.347Z,98937.63
2019-06-10T05:41:34.875Z,98947.82
2019-06-10T05:43:59.753Z,98956.71
2019-06-10T05:46:28.557Z,98934.42
2019-06-10T05:48:55.348Z,98920.83
2019-06-10T05:51:23.153Z,98917.41
2019-06-10T05:53:52.794Z,98901.75
2019-06-10T05:56:21.937Z,98911.44
2019-06-10T05:58:48.390Z,98918.53
2019-06-10T06:01:15.541Z,98739.22
2019-06-10T06:03:43.960Z,98914.03
2019-06-10T06:06:12.514Z,98897.70
2019-06-10T06:11:17.698Z,98893.95
2019-06-10T06:13:44.818Z,98894.42
2019-06-10T06:16:12.872Z,98898.77
2019-06-10T06:18:42.311Z,98885.82
2019-06-10T06:21:22.467Z,98871.91
2019-06-10T06:23:38.731Z,98885.92
2019-06-10T06:26:06.851Z,98881.12
2019-06-10T06:28:36.117Z,98881.31
2019-06-10T06:31:03.708Z,98875.09
2019-06-10T06:33:35.956Z,98880.60
2019-06-10T06:36:09.064Z,98883.40
2019-06-10T06:38:38.128Z,98874.86
2019-06-10T06:41:05.895Z,98873.28
2019-06-10T06:43:39.977Z,98875.73
2019-06-10T06:46:03.032Z,98876.55
2019-06-10T06:48:33.601Z,98880.28
2019-06-10T06:51:05.482Z,98888.68
2019-06-10T06:53:42.111Z,98714.22
2019-06-10T06:56:03.845Z,98891.02
2019-06-10T06:58:40.197Z,98892.47
2019-06-10T07:01:09.849Z,98892.29
2019-06-10T07:03:30.041Z,98897.06
2019-06-10T07:05:57.588Z,98884.03
2019-06-10T07:08:26.025Z,98885.66
2019-06-10T07:10:53.834Z,98886.48
2019-06-10T07:13:22.272Z,98886.13
2019-06-10T07:15:49.213Z,98884.78
2019-06-10T07:18:16.774Z,98876.97
2019-06-10T07:20:45.632Z,98877.59
2019-06-10T07:23:13.020Z,98874.58
2019-06-10T07:25:46.554Z,98877.59
2019-06-10T07:28:09.765Z,98868.58
2019-06-10T07:30:41.562Z,98871.50
2019-06-10T07:33:06.549Z,98865.58
2019-06-10T07:35:34.561Z,98859.19
2019-06-10T07:38:03.533Z,98870.28
2019-06-10T07:40:32.973Z,98865.92
2019-06-10T07:42:59.489Z,98857.55
2019-06-10T07:45:27.175Z,98853.19
2019-06-10T07:47:54.650Z,98857.20
2019-06-10T07:50:22.692Z,98851.18
2019-06-10T07:52:52.933Z,98855.84
2019-06-10T07:55:22.178Z,98851.38
2019-06-10T07:57:52.922Z,98857.62
2019-06-10T08:00:22.639Z,98861.42
2019-06-10T08:02:49.568Z,98853.68
2019-06-10T08:05:16.578Z,98853.57
2019-06-10T08:07:49.007Z,98862.28
2019-06-10T08:10:16.005Z,98693.67
2019-06-10T08:12:48.340Z,98870.59
2019-06-10T08:15:16.411Z,98862.95
2019-06-10T08:17:53.069Z,98861.40
2019-06-10T08:20:22.240Z,98875.66
2019-06-10T08:22:54.348Z,98859.09
2019-06-10T08:25:20.210Z,98868.71
2019-06-10T08:27:49.371Z,98864.67
2019-06-10T08:30:22.993Z,98858.59
2019-06-10T08:32:46.817Z,98857.87
2019-06-10T08:35:15.215Z,98867.80
2019-06-10T08:37:43.195Z,98706.62
2019-06-10T08:40:12.606Z,98858.37
2019-06-10T08:42:41.474Z,98851.50
2019-06-10T08:45:12.314Z,98850.13
2019-06-10T08:47:39.269Z,98836.01
2019-06-10T08:50:07.122Z,98713.83
2019-06-10T08:52:51.669Z,98861.27
2019-06-10T08:55:04.004Z,98863.48
2019-06-10T08:57:33.522Z,98863.92
2019-06-10T09:00:07.033Z,98859.87
2019-06-10T09:02:31.142Z,98862.13
2019-06-10T09:05:00.416Z,98857.52
2019-06-10T09:07:32.336Z,98866.59
2019-06-10T09:10:03.136Z,98863.55
2019-06-10T09:12:36.406Z,98852.70
2019-06-10T09:14:59.859Z,98845.78
2019-06-10T09:17:26.902Z,98841.87
2019-06-10T09:19:54.734Z,98841.42
2019-06-10T09:22:23.636Z,98851.80
2019-06-10T09:24:53.126Z,98863.55
2019-06-10T09:27:19.754Z,98854.12
2019-06-10T09:29:49.800Z,98852.00
2019-06-10T09:32:15.533Z,98851.17
2019-06-10T09:34:50.578Z,98862.31
2019-06-10T09:37:12.478Z,98861.09
2019-06-10T09:39:39.805Z,98865.66
2019-06-10T09:42:14.093Z,98861.74
2019-06-10T09:44:41.650Z,98867.20
2019-06-10T09:47:08.041Z,98864.81
2019-06-10T09:49:34.922Z,98860.85
2019-06-10T09:52:03.474Z,98845.17
2019-06-10T09:54:33.565Z,98847.68
2019-06-10T09:57:02.432Z,98718.80
2019-06-10T09:59:32.236Z,98851.05
2019-06-10T10:02:02.948Z,98692.31
2019-06-10T10:04:28.556Z,98840.13
2019-06-10T10:06:57.479Z,98837.03
2019-06-10T10:09:26.218Z,98841.45
2019-06-10T10:11:55.921Z,98835.72
2019-06-10T10:14:23.102Z,98696.64
2019-06-10T10:16:57.025Z,98824.78
2019-06-10T10:19:19.351Z,98825.41
2019-06-10T10:21:52.231Z,98826.22
2019-06-10T10:24:15.905Z,98658.27
2019-06-10T10:26:46.701Z,98819.22
2019-06-10T10:29:13.101Z,98820.36
2019-06-10T10:31:42.904Z,98812.36
2019-06-10T10:34:09.554Z,98816.84
2019-06-10T10:36:36.549Z,98812.80
2019-06-10T10:39:07.225Z,98806.42
2019-06-10T10:41:34.379Z,98802.48
2019-06-10T10:44:03.061Z,98811.05
2019-06-10T10:46:32.477Z,98807.58
2019-06-10T10:48:59.168Z,98801.24
2019-06-10T10:51:26.017Z,98795.84
2019-06-10T10:54:19.025Z,98787.03
2019-06-10T10:56:22.297Z,98780.30
2019-06-10T10:58:52.055Z,98777.44
2019-06-10T11:01:19.185Z,98775.75
2019-06-10T11:03:48.210Z,98774.23
2019-06-10T11:06:15.726Z,98777.11
2019-06-10T11:08:45.278Z,98769.45
2019-06-10T11:11:13.443Z,98769.31
2019-06-10T11:13:43.222Z,98754.98
2019-06-10T11:16:09.598Z,98759.84
2019-06-10T11:18:37.226Z,98753.92
2019-06-10T11:21:05.140Z,98757.32
2019-06-10T11:23:34.257Z,98754.19
2019-06-10T11:26:04.471Z,98739.12
2019-06-10T11:28:32.164Z,98747.70
2019-06-10T11:30:59.319Z,98733.30
2019-06-10T11:33:27.252Z,98737.77
2019-06-10T11:35:57.484Z,98722.90
2019-06-10T11:38:23.500Z,98718.01
2019-06-10T11:40:54.982Z,98719.19
2019-06-10T11:43:22.670Z,98712.25
2019-06-10T11:45:56.888Z,98703.10
2019-06-10T11:48:19.169Z,98706.95
2019-06-10T11:50:47.065Z,98702.00
2019-06-10T11:53:14.132Z,98697.34
2019-06-10T11:55:42.404Z,98692.56
2019-06-10T11:58:10.011Z,98691.93
2019-06-10T12:00:36.865Z,98684.47
2019-06-10T12:03:04.641Z,98686.33
2019-06-10T12:05:32.734Z,98695.33
2019-06-10T12:08:01.922Z,98688.23
2019-06-10T12:10:28.659Z,98689.18
2019-06-10T12:12:58.951Z,98675.23
2019-06-10T12:15:25.016Z,98665.48
2019-06-10T12:17:58.684Z,98662.45
2019-06-10T12:20:22.962Z,98657.94
2019-06-10T12:22:52.232Z,98657.92
2019-06-10T12:25:32.448Z,98651.17
2019-06-10T12:27:50.460Z,98647.66
2019-06-10T12:30:18.265Z,98639.38
2019-06-10T12:32:45.274Z,98628.27
2019-06-10T12:35:13.675Z,98617.58
2019-06-10T12:37:42.608Z,98615.73
2019-06-10T12:40:12.784Z,98608.52
2019-06-10T12:42:39.607Z,98565.27
2019-06-10T12:45:08.606Z,98600.52
2019-06-10T12:47:35.807Z,98589.45
2019-06-10T12:50:05.556Z,98393.63
2019-06-10T12:52:32.545Z,98595.36
2019-06-10T12:54:59.766Z,98485.88
2019-06-10T12:57:26.720Z,98601.15
2019-06-10T12:59:54.074Z,98601.63
2019-06-10T13:02:24.525Z,98596.94
2019-06-10T13:04:52.099Z,98597.13
2019-06-10T13:07:22.629Z,98615.45
2019-06-10T13:09:52.345Z,98607.16
2019-06-10T13:12:18.806Z,98604.80
2019-06-10T13:14:45.787Z,98602.58
2019-06-10T13:17:13.060Z,98597.69
2019-06-10T13:19:43.038Z,98600.80
2019-06-10T13:22:09.327Z,98597.30
2019-06-10T13:24:37.139Z,98602.97
2019-06-10T13:27:06.550Z,98476.58
2019-06-10T13:29:33.229Z,98591.80
2019-06-10T13:32:02.819Z,98588.14
2019-06-10T13:34:29.734Z,98590.16
2019-06-10T13:36:56.962Z,98495.47
2019-06-10T13:39:28.607Z,98583.09
2019-06-10T13:41:55.929Z,98582.20
2019-06-10T13:44:24.254Z,98577.19
2019-06-10T13:46:53.158Z,98564.91
2019-06-10T13:49:25.198Z,98557.88
2019-06-10T13:51:49.370Z,98557.44
2019-06-10T13:54:16.248Z,98560.09
2019-06-10T13:56:47.496Z,98548.75
2019-06-10T13:59:14.246Z,98554.26
2019-06-10T14:01:42.828Z,98570.28
2019-06-10T14:04:17.178Z,98579.48
2019-06-10T14:06:49.039Z,98574.82
2019-06-10T14:09:12.614Z,98575.16
2019-06-10T14:11:38.043Z,98476.09
2019-06-10T14:14:05.793Z,98594.76
2019-06-10T14:16:34.002Z,98586.73
2019-06-10T14:19:02.110Z,98587.61
2019-06-10T14:21:29.811Z,98582.73
2019-06-10T14:23:56.995Z,98581.36
2019-06-10T14:26:36.741Z,98582.05
2019-06-10T14:28:52.687Z,98581.67
2019-06-10T14:31:38.697Z,98567.54
2019-06-10T14:33:48.732Z,98563.98
2019-06-10T14:36:16.996Z,98556.41
2019-06-10T14:38:47.821Z,98540.95
2019-06-10T14:41:14.712Z,98536.61
2019-06-10T14:43:42.401Z,98527.75
2019-06-10T14:46:13.872Z,98533.50
2019-06-10T14:48:39.706Z,98530.98
2019-06-10T14:51:07.502Z,98535.52
2019-06-10T14:53:35.116Z,98530.05
2019-06-10T14:56:03.572Z,98536.07
2019-06-10T14:58:30.904Z,98539.37
2019-06-10T15:00:58.313Z,98430.58
2019-06-10T15:03:25.598Z,98537.87
2019-06-10T15:05:53.033Z,98534.95
2019-06-10T15:08:22.814Z,98539.09
2019-06-10T15:10:49.593Z,98522.37
2019-06-10T15:13:17.733Z,98512.77
2019-06-10T15:15:48.323Z,98517.83
2019-06-10T15:18:18.261Z,98393.16
2019-06-10T15:20:47.178Z,98526.81
2019-06-10T15:23:16.962Z,98523.64
2019-06-10T15:25:50.032Z,98538.14
2019-06-10T15:28:15.896Z,98436.53
2019-06-10T15:30:43.225Z,98537.53
2019-06-10T15:33:14.910Z,98411.65
2019-06-10T15:35:42.660Z,98254.19
2019-06-10T15:38:15.065Z,98546.63
2019-06-10T15:40:43.129Z,98546.98
2019-06-10T15:43:09.662Z,98544.91
2019-06-10T15:45:36.745Z,98548.97
2019-06-10T15:48:04.407Z,98548.33
2019-06-10T15:50:32.795Z,98553.70
2019-06-10T15:52:59.669Z,98571.34
2019-06-10T15:55:49.111Z,98576.52
2019-06-10T15:57:56.607Z,98582.38
2019-06-10T16:00:28.844Z,98585.16
2019-06-10T16:02:52.606Z,98589.59
2019-06-10T16:05:21.226Z,98586.25
2019-06-10T16:07:48.804Z,98592.86
2019-06-10T16:10:20.674Z,98603.59
2019-06-10T16:12:44.750Z,98600.23
2019-06-10T16:15:13.366Z,98611.52
2019-06-10T16:17:43.107Z,98612.27
2019-06-10T16:20:12.639Z,98604.17
2019-06-10T16:22:39.398Z,98606.93
2019-06-10T16:25:06.607Z,98492.27
2019-06-10T16:27:47.271Z,98595.31
2019-06-10T16:30:05.018Z,98569.75
2019-06-10T16:32:32.979Z,98559.39
2019-06-10T16:35:00.463Z,98547.83
2019-06-10T16:37:27.839Z,98544.15
2019-06-10T16:39:55.581Z,98544.81
2019-06-10T16:42:25.501Z,98536.06
2019-06-10T16:44:52.789Z,98542.58
2019-06-10T16:47:19.678Z,98568.28
2019-06-10T16:49:46.798Z,98608.46
2019-06-10T16:52:15.858Z,98622.75
2019-06-10T16:54:43.327Z,98625.36
2019-06-10T16:57:12.342Z,98633.94
2019-06-10T16:59:39.529Z,98649.73
2019-06-10T17:02:06.700Z,98652.34
2019-06-10T17:04:33.560Z,98658.72
2019-06-10T17:07:02.122Z,98658.90
2019-06-10T17:09:29.614Z,98674.41
2019-06-10T17:11:56.837Z,98677.67
2019-06-10T17:14:26.035Z,98682.14
2019-06-10T17:16:54.282Z,98689.97
2019-06-10T17:19:26.447Z,98687.92
2019-06-10T17:21:52.646Z,98671.77
2019-06-10T17:24:19.271Z,98662.02
2019-06-10T17:26:46.812Z,98657.24
2019-06-10T17:29:13.662Z,98662.59
2019-06-10T17:31:42.605Z,98370.11
2019-06-10T17:34:09.462Z,98681.75
2019-06-10T17:36:36.543Z,98633.34
2019-06-10T17:39:06.760Z,98628.94
2019-06-10T17:41:35.459Z,98663.48
2019-06-10T17:44:03.490Z,98676.64
2019-06-10T17:46:34.978Z,98665.61
2019-06-10T17:49:02.479Z,98667.66
2019-06-10T17:51:31.664Z,98684.84
2019-06-10T17:53:58.497Z,98686.09
2019-06-10T17:56:27.908Z,98673.95
2019-06-10T17:58:58.043Z,98679.28
2019-06-10T18:01:25.444Z,98703.10
2019-06-10T18:03:52.995Z,98704.06
2019-06-10T18:06:22.903Z,98683.19
2019-06-10T18:08:49.192Z,98671.58
2019-06-10T18:11:16.140Z,98660.33
2019-06-10T18:13:43.150Z,98644.76
2019-06-10T18:16:10.100Z,98633.12
2019-06-10T18:18:38.106Z,98616.61
2019-06-10T18:21:05.675Z,98611.13
2019-06-10T18:23:35.098Z,98625.66
2019-06-10T18:26:03.530Z,98637.17
2019-06-10T18:28:32.134Z,98650.09
2019-06-10T18:30:59.919Z,98610.34
2019-06-10T18:33:27.702Z,98610.26
2019-06-10T18:35:54.944Z,98598.09
2019-06-10T18:38:22.760Z,98577.70
2019-06-10T18:40:49.858Z,98575.13
2019-06-10T18:43:18.263Z,98557.60
2019-06-10T18:45:45.393Z,98548.34
2019-06-10T18:48:12.621Z,98549.00
2019-06-10T18:50:40.470Z,98541.72
2019-06-10T18:53:07.649Z,98547.11
2019-06-10T18:55:37.844Z,98541.82
2019-06-10T18:58:03.386Z,98545.14
2019-06-10T19:00:49.262Z,98556.83
2019-06-10T19:03:10.281Z,98558.05
2019-06-10T19:05:31.063Z,98561.94
2019-06-10T19:07:58.724Z,98557.58
2019-06-10T19:10:26.439Z,98549.00
2019-06-10T19:12:53.377Z,98546.06
2019-06-10T19:15:20.551Z,98555.97
2019-06-10T19:17:47.944Z,98550.98
2019-06-10T19:20:15.006Z,98564.83
2019-06-10T19:22:43.210Z,98573.88
2019-06-10T19:25:12.596Z,98588.88
2019-06-10T19:27:40.510Z,98592.36
2019-06-10T19:30:08.845Z,98599.23
2019-06-10T19:32:37.112Z,98610.39
2019-06-10T19:35:07.080Z,98619.98
2019-06-10T19:37:35.853Z,98610.83
2019-06-10T19:40:05.110Z,98587.44
2019-06-10T19:42:32.981Z,98558.11
2019-06-10T19:45:07.100Z,98556.12
2019-06-10T19:47:34.335Z,98549.50
2019-06-10T19:50:03.318Z,98545.82
2019-06-10T19:52:32.489Z,98539.88
2019-06-10T19:54:59.430Z,98536.56
2019-06-10T19:57:26.467Z,98528.16
2019-06-10T20:00:07.703Z,98518.83
2019-06-10T20:02:22.766Z,98510.71
2019-06-10T20:04:49.778Z,98523.03
2019-06-10T20:07:16.752Z,98531.22
2019-06-10T20:09:46.116Z,98558.72
2019-06-10T20:12:12.688Z,98538.94
2019-06-10T20:14:41.184Z,98536.58
2019-06-10T20:17:09.404Z,98534.11
2019-06-10T20:19:37.845Z,98527.41
2019-06-10T20:22:04.798Z,98519.36
2019-06-10T20:24:34.038Z,98513.98
2019-06-10T20:27:03.158Z,98146.70
2019-06-10T20:29:30.100Z,98335.98
2019-06-10T20:31:57.042Z,98516.90
2019-06-10T20:34:25.847Z,98537.58
2019-06-10T20:36:53.217Z,98549.79
2019-06-10T20:39:24.442Z,98545.34
2019-06-10T20:41:52.283Z,98527.98
2019-06-10T20:44:18.590Z,98519.13
2019-06-10T20:46:46.534Z,98516.75
2019-06-10T20:49:14.172Z,98514.95
2019-06-10T20:51:58.067Z,98525.06
2019-06-10T20:54:12.736Z,98515.01
2019-06-10T20:56:41.081Z,98515.80
2019-06-10T20:59:08.184Z,98517.47
2019-06-10T21:01:35.323Z,98511.66
2019-06-10T21:04:03.735Z,98504.02
2019-06-10T21:06:32.715Z,98509.14
2019-06-10T21:08:59.962Z,98517.87
2019-06-10T21:11:26.909Z,98527.11
2019-06-10T21:13:55.629Z,98534.62
2019-06-10T21:16:23.816Z,98534.27
2019-06-10T21:18:55.346Z,98540.58
2019-06-10T21:21:19.491Z,98412.52
2019-06-10T21:23:47.605Z,98556.53
2019-06-10T21:26:14.731Z,98560.23
2019-06-10T21:28:45.556Z,98563.52
2019-06-10T21:31:10.388Z,98547.80
2019-06-10T21:33:37.831Z,98344.38
2019-06-10T21:36:04.664Z,98514.08
2019-06-10T21:38:32.273Z,98510.86
2019-06-10T21:41:00.323Z,98517.27
2019-06-10T21:43:27.779Z,98510.47
2019-06-10T21:45:57.578Z,98496.84
2019-06-10T21:48:23.590Z,98499.02
2019-06-10T21:50:54.222Z,98495.58
2019-06-10T21:53:19.258Z,98483.14
2019-06-10T21:55:47.255Z,98493.23
2019-06-10T21:58:14.911Z,98241.41
2019-06-10T22:00:55.362Z,98512.55
2019-06-10T22:03:15.600Z,98531.20
2019-06-10T22:05:44.280Z,98539.34
2019-06-10T22:08:13.732Z,98534.23
2019-06-10T22:10:42.485Z,98549.88
2019-06-10T22:13:12.247Z,98567.11
2019-06-10T22:15:39.329Z,98576.75
2019-06-10T22:18:06.229Z,98575.89
2019-06-10T22:20:34.163Z,98572.11
2019-06-10T22:23:02.640Z,98576.00
2019-06-10T22:25:32.662Z,98595.62
2019-06-10T22:28:02.503Z,98595.52
2019-06-10T22:30:32.095Z,98596.55
2019-06-10T22:32:59.550Z,98598.52
2019-06-10T22:35:27.594Z,98608.27
2019-06-10T22:37:56.643Z,98613.59
2019-06-10T22:40:24.317Z,98612.92
2019-06-10T22:43:07.718Z,98609.69
2019-06-10T22:45:35.937Z,98613.78
2019-06-10T22:48:03.400Z,98610.88
2019-06-10T22:50:32.254Z,98606.55
2019-06-10T22:53:00.335Z,98596.80
2019-06-10T22:55:28.030Z,98589.66
2019-06-10T22:57:59.004Z,98596.02
2019-06-10T23:00:25.575Z,98597.98
2019-06-10T23:02:54.639Z,98621.37
2019-06-10T23:05:23.243Z,98597.98
2019-06-10T23:07:53.301Z,98589.44
2019-06-10T23:10:22.932Z,98580.34
2019-06-10T23:12:51.332Z,98582.08
2019-06-10T23:15:19.790Z,98587.91
2019-06-10T23:17:48.907Z,98400.71
2019-06-10T23:20:17.005Z,98414.20
2019-06-10T23:22:44.590Z,98592.13
2019-06-10T23:25:12.672Z,98600.35
2019-06-10T23:27:44.355Z,98604.58
2019-06-10T23:30:11.861Z,98603.94
2019-06-10T23:32:42.131Z,98613.79
2019-06-10T23:35:12.167Z,98618.23
2019-06-10T23:37:39.276Z,98609.89
2019-06-10T23:40:07.385Z,98615.10
2019-06-10T23:42:36.608Z,98597.02
2019-06-10T23:45:05.043Z,98587.36
2019-06-10T23:47:32.758Z,98579.13
2019-06-10T23:50:03.898Z,98566.59
2019-06-10T23:52:32.816Z,98562.46
2019-06-10T23:55:02.637Z,98556.06
2019-06-10T23:57:29.258Z,98554.55
2019-06-10T23:59:56.892Z,98563.64
